Time;durP1;ratioP1;P1;durP2;ratioP2;P2;SDS_P1;SDS_P2;PMS_P1;PMS_P2;Temp;Humidity;BMP_temperature;BMP_pressure;BME280_temperature;BME280_humidity;BME280_pressure;Samples;Min_cycle;Max_cycle;Signal;HPM_P1;HPM_P2
2022/10/22 00:00:33;;;;;;;6.13;1.97;;;8.70;99.90;;;;;;5020576;28;20232;-90
2022/10/22 00:03:04;;;;;;;6.03;2.07;;;8.80;99.90;;;;;;5016392;28;20515;-91
2022/10/22 00:05:38;;;;;;;6.67;2.10;;;8.90;99.90;;;;;;5019089;28;20217;-91
2022/10/22 00:08:09;;;;;;;8.10;2.27;;;8.80;99.90;;;;;;5018539;28;20196;-91
2022/10/22 00:10:40;;;;;;;6.20;1.87;;;8.80;99.90;;;;;;5015123;28;20215;-92
2022/10/22 00:13:12;;;;;;;6.20;2.00;;;8.70;99.90;;;;;;5000176;28;20233;-90
2022/10/22 00:15:42;;;;;;;5.47;1.67;;;8.70;99.90;;;;;;5015449;28;20210;-91
2022/10/22 00:18:14;;;;;;;5.10;2.10;;;8.70;99.90;;;;;;5014287;28;20209;-90
2022/10/22 00:20:47;;;;;;;5.53;1.80;;;8.70;99.90;;;;;;5015593;28;20233;-91
2022/10/22 00:23:18;;;;;;;5.90;2.27;;;8.80;99.90;;;;;;5013964;28;20578;-89
2022/10/22 00:25:49;;;;;;;6.50;2.27;;;8.80;99.90;;;;;;5018811;28;20574;-92
2022/10/22 00:28:20;;;;;;;3.83;1.97;;;8.80;99.90;;;;;;5015172;28;20235;-90
2022/10/22 00:30:57;;;;;;;4.97;2.40;;;8.80;99.90;;;;;;4997979;28;20221;-91
2022/10/22 00:33:30;;;;;;;7.37;2.00;;;8.80;99.90;;;;;;5014333;28;20212;-91
2022/10/22 00:36:02;;;;;;;5.63;2.37;;;8.90;99.90;;;;;;5015858;28;20217;-90
2022/10/22 00:38:35;;;;;;;5.37;3.20;;;9.00;99.90;;;;;;5017250;28;20230;-91
2022/10/22 00:41:07;;;;;;;7.97;3.53;;;9.00;99.90;;;;;;5030540;28;20300;-92
2022/10/22 00:43:56;;;;;;;8.10;4.50;;;9.00;99.90;;;;;;5018940;28;20216;-91
2022/10/22 00:46:27;;;;;;;8.20;3.93;;;9.00;99.90;;;;;;5026800;28;20280;-91
2022/10/22 00:49:00;;;;;;;7.50;2.80;;;8.90;99.90;;;;;;5041300;28;20269;-92
2022/10/22 00:51:36;;;;;;;7.23;2.47;;;8.70;99.90;;;;;;5014793;28;20233;-91
2022/10/22 00:54:09;;;;;;;6.00;2.17;;;8.60;99.90;;;;;;5028184;28;20210;-91
2022/10/22 00:56:40;;;;;;;5.70;2.10;;;8.60;99.90;;;;;;5015749;28;20220;-91
2022/10/22 00:59:12;;;;;;;6.67;2.43;;;8.70;99.90;;;;;;5019844;28;20213;-90
2022/10/22 01:01:44;;;;;;;4.50;2.30;;;8.70;99.90;;;;;;5020138;28;20293;-91
2022/10/22 01:04:15;;;;;;;4.57;2.43;;;8.70;99.90;;;;;;5018995;28;20213;-91
2022/10/22 01:06:48;;;;;;;4.77;2.53;;;8.80;99.90;;;;;;5015930;28;20407;-91
2022/10/22 01:09:26;;;;;;;6.47;2.57;;;8.70;99.90;;;;;;5022776;28;20677;-90
2022/10/22 01:12:03;;;;;;;3.53;2.17;;;8.60;99.90;;;;;;5018835;28;20227;-91
2022/10/22 01:14:43;;;;;;;5.33;2.37;;;8.60;99.90;;;;;;5017587;28;20209;-91
2022/10/22 01:17:23;;;;;;;4.77;2.10;;;8.60;99.90;;;;;;5021193;28;20212;-95
2022/10/22 01:20:07;;;;;;;4.90;2.33;;;8.50;99.90;;;;;;5022807;28;20201;-92
2022/10/22 01:22:44;;;;;;;5.57;2.43;;;8.70;99.90;;;;;;5016483;28;20201;-94
2022/10/22 01:25:23;;;;;;;8.03;2.50;;;8.50;99.90;;;;;;5005075;28;20313;-93
2022/10/22 01:28:06;;;;;;;6.53;2.37;;;8.50;99.90;;;;;;5016856;28;20615;-93
2022/10/22 01:30:42;;;;;;;6.17;2.80;;;8.60;99.90;;;;;;5007185;28;20193;-93
2022/10/22 01:33:16;;;;;;;6.03;2.60;;;8.70;99.90;;;;;;5018504;28;20208;-93
2022/10/22 01:35:48;;;;;;;5.23;2.43;;;8.80;99.90;;;;;;5018192;28;20537;-92
2022/10/22 01:38:23;;;;;;;6.23;2.77;;;8.90;99.90;;;;;;5003293;28;20201;-92
2022/10/22 01:40:57;;;;;;;5.83;2.90;;;8.90;99.90;;;;;;5021561;28;20228;-92
2022/10/22 01:43:28;;;;;;;7.23;3.10;;;8.90;99.90;;;;;;5013993;28;20208;-90
2022/10/22 01:46:06;;;;;;;8.00;2.70;;;9.00;99.90;;;;;;5012876;28;20216;-91
2022/10/22 01:48:52;;;;;;;6.37;2.60;;;8.90;99.90;;;;;;5002996;28;20205;-93
2022/10/22 01:51:50;;;;;;;8.87;3.70;;;8.90;99.90;;;;;;5029497;28;20256;-91
2022/10/22 01:54:33;;;;;;;7.77;4.07;;;8.90;99.90;;;;;;5011151;28;20201;-93
2022/10/22 01:57:12;;;;;;;6.77;3.37;;;8.90;99.90;;;;;;5019673;28;20249;-92
2022/10/22 01:59:53;;;;;;;7.13;3.27;;;8.90;99.90;;;;;;5007720;28;20201;-90
2022/10/22 02:02:36;;;;;;;6.23;2.93;;;8.90;99.90;;;;;;5015106;28;20206;-92
2022/10/22 02:05:13;;;;;;;8.10;3.27;;;9.00;99.90;;;;;;5021985;28;20218;-92
2022/10/22 02:07:48;;;;;;;5.70;3.43;;;8.90;99.90;;;;;;5022871;28;20204;-92
2022/10/22 02:10:21;;;;;;;7.60;3.97;;;9.00;99.90;;;;;;5010750;28;20205;-91
2022/10/22 02:12:54;;;;;;;6.73;3.87;;;9.00;99.90;;;;;;5003025;28;20225;-88
2022/10/22 02:15:27;;;;;;;6.10;3.47;;;9.10;99.90;;;;;;5010631;28;20652;-91
2022/10/22 02:18:01;;;;;;;7.93;3.10;;;9.00;99.90;;;;;;5016106;28;20237;-93
2022/10/22 02:20:36;;;;;;;4.93;3.03;;;9.00;99.90;;;;;;5012344;28;20243;-89
2022/10/22 02:23:07;;;;;;;6.10;3.60;;;9.00;99.90;;;;;;5003344;28;20210;-90
2022/10/22 02:25:42;;;;;;;6.17;3.10;;;9.00;99.90;;;;;;5031037;28;20217;-94
2022/10/22 02:28:17;;;;;;;8.10;3.80;;;9.00;99.90;;;;;;5024007;28;20210;-94
2022/10/22 02:30:54;;;;;;;4.60;2.90;;;9.00;99.90;;;;;;4673153;28;10000053;-93
2022/10/22 02:33:32;;;;;;;4.90;3.70;;;9.00;99.90;;;;;;5017074;28;20758;-94
2022/10/22 02:36:05;;;;;;;7.70;3.60;;;9.10;99.90;;;;;;5015227;28;20671;-91
2022/10/22 02:38:38;;;;;;;6.20;3.40;;;9.20;99.90;;;;;;5013256;28;20575;-92
2022/10/22 02:41:10;;;;;;;5.37;2.70;;;9.10;99.90;;;;;;5016203;28;20237;-91
2022/10/22 02:43:50;;;;;;;5.40;2.37;;;9.00;99.90;;;;;;5017310;28;20241;-94
2022/10/22 02:46:21;;;;;;;4.10;1.97;;;9.00;99.90;;;;;;5018071;28;20322;-91
2022/10/22 02:48:54;;;;;;;5.27;2.53;;;9.00;99.90;;;;;;5024756;28;20209;-93
2022/10/22 02:51:25;;;;;;;3.80;1.70;;;9.00;99.90;;;;;;5019225;28;20241;-91
2022/10/22 02:53:56;;;;;;;4.27;2.20;;;8.90;99.90;;;;;;5019017;28;20211;-91
2022/10/22 02:56:28;;;;;;;3.33;1.73;;;9.00;99.90;;;;;;5004301;28;20252;-92
2022/10/22 02:58:59;;;;;;;4.70;1.77;;;8.90;99.90;;;;;;5014352;28;20588;-90
2022/10/22 03:01:31;;;;;;;4.03;1.80;;;8.90;99.90;;;;;;4997381;28;20240;-90
2022/10/22 03:04:04;;;;;;;5.10;2.13;;;8.90;99.90;;;;;;5011498;28;20205;-92
2022/10/22 03:06:35;;;;;;;4.50;1.93;;;8.80;99.90;;;;;;5006447;28;20560;-91
2022/10/22 03:09:06;;;;;;;8.83;1.90;;;8.70;99.90;;;;;;5014736;28;20284;-92
2022/10/22 03:11:38;;;;;;;5.40;1.80;;;8.70;99.90;;;;;;5001410;28;20584;-91
2022/10/22 03:14:09;;;;;;;3.53;1.50;;;8.60;99.90;;;;;;5000039;28;20240;-91
2022/10/22 03:16:40;;;;;;;2.43;1.67;;;8.60;99.90;;;;;;5029684;28;20232;-94
2022/10/22 03:19:14;;;;;;;6.93;1.90;;;8.60;99.90;;;;;;5007648;28;20224;-92
2022/10/22 03:21:50;;;;;;;7.27;1.70;;;8.50;99.90;;;;;;4997411;28;20705;-93
2022/10/22 03:24:25;;;;;;;2.70;1.63;;;8.50;99.90;;;;;;5014595;28;20964;-93
2022/10/22 03:26:57;;;;;;;5.47;2.10;;;8.40;99.90;;;;;;5014416;28;20213;-88
2022/10/22 03:29:28;;;;;;;4.50;1.67;;;8.40;99.90;;;;;;5013271;28;20239;-91
2022/10/22 03:32:00;;;;;;;4.17;1.90;;;8.40;99.90;;;;;;4998009;28;20212;-90
2022/10/22 03:34:33;;;;;;;6.97;1.70;;;8.40;99.90;;;;;;5018295;28;20660;-90
2022/10/22 03:37:04;;;;;;;5.27;1.83;;;8.40;99.90;;;;;;4991564;28;20209;-90
2022/10/22 03:39:36;;;;;;;5.73;1.83;;;8.40;99.90;;;;;;5010119;28;20217;-91
2022/10/22 03:42:08;;;;;;;5.43;1.80;;;8.30;99.90;;;;;;5012887;28;20238;-91
2022/10/22 03:44:41;;;;;;;4.83;2.00;;;8.40;99.90;;;;;;4997253;28;20210;-93
2022/10/22 03:47:14;;;;;;;3.63;1.77;;;8.40;99.90;;;;;;5011627;28;20229;-95
2022/10/22 03:49:48;;;;;;;2.83;1.90;;;8.40;99.90;;;;;;5002242;28;20228;-92
2022/10/22 03:52:21;;;;;;;3.87;1.77;;;8.30;99.90;;;;;;5028941;28;20219;-92
2022/10/22 03:54:53;;;;;;;4.93;1.87;;;8.40;99.90;;;;;;5024767;28;20213;-92
2022/10/22 03:57:24;;;;;;;3.87;2.00;;;8.40;99.90;;;;;;5018243;28;20626;-92
2022/10/22 03:59:55;;;;;;;4.63;2.20;;;8.40;99.90;;;;;;5016526;28;20659;-92
2022/10/22 04:02:26;;;;;;;5.27;1.90;;;8.40;99.90;;;;;;5013266;28;20249;-91
2022/10/22 04:04:59;;;;;;;5.33;1.73;;;8.40;99.90;;;;;;5015882;28;20228;-91
2022/10/22 04:07:31;;;;;;;4.40;2.03;;;8.40;99.90;;;;;;5016055;28;20308;-91
2022/10/22 04:10:03;;;;;;;4.03;1.70;;;8.40;99.90;;;;;;5017978;28;20212;-91
2022/10/22 04:12:34;;;;;;;3.97;1.90;;;8.40;99.90;;;;;;4999277;28;20586;-91
2022/10/22 04:15:06;;;;;;;4.63;2.00;;;8.40;99.90;;;;;;4995349;28;20254;-91
2022/10/22 04:17:37;;;;;;;5.67;2.27;;;8.40;99.90;;;;;;4997966;28;20269;-92
2022/10/22 04:20:12;;;;;;;5.53;2.03;;;8.40;99.90;;;;;;5015188;28;20309;-92
2022/10/22 04:22:43;;;;;;;5.97;2.00;;;8.40;99.90;;;;;;5013344;28;20239;-92
2022/10/22 04:25:15;;;;;;;3.97;2.27;;;8.40;99.90;;;;;;5013394;28;20214;-91
2022/10/22 04:27:47;;;;;;;4.00;2.00;;;8.40;99.90;;;;;;5014417;28;20271;-92
2022/10/22 04:30:18;;;;;;;5.37;2.07;;;8.40;99.90;;;;;;5011962;28;20213;-92
2022/10/22 04:32:50;;;;;;;3.33;1.80;;;8.40;99.90;;;;;;5012075;28;20654;-91
2022/10/22 04:35:23;;;;;;;2.60;1.90;;;8.40;99.90;;;;;;4993639;28;20214;-91
2022/10/22 04:37:59;;;;;;;6.93;2.07;;;8.40;99.90;;;;;;5000772;28;20213;-90
2022/10/22 04:40:30;;;;;;;2.33;2.00;;;8.40;99.90;;;;;;5024370;28;20212;-92
2022/10/22 04:43:01;;;;;;;6.53;2.17;;;8.50;99.90;;;;;;5032491;28;20237;-90
2022/10/22 04:45:34;;;;;;;5.53;1.90;;;8.50;99.90;;;;;;5023916;28;20926;-91
2022/10/22 04:48:06;;;;;;;4.50;2.40;;;8.40;99.90;;;;;;5016812;28;20657;-92
2022/10/22 04:50:39;;;;;;;3.00;2.03;;;8.40;99.90;;;;;;5016612;28;20220;-92
2022/10/22 04:53:11;;;;;;;2.87;1.70;;;8.50;99.90;;;;;;5017904;28;20220;-91
2022/10/22 04:55:42;;;;;;;6.53;2.17;;;8.50;99.90;;;;;;5008240;28;20223;-92
2022/10/22 04:58:14;;;;;;;4.77;2.03;;;8.50;99.90;;;;;;5019696;28;20236;-91
2022/10/22 05:00:46;;;;;;;6.70;2.30;;;8.50;99.90;;;;;;5014854;28;20658;-91
2022/10/22 05:03:17;;;;;;;5.47;2.27;;;8.50;99.90;;;;;;5009561;28;20238;-92
2022/10/22 05:05:50;;;;;;;3.73;2.43;;;8.50;99.90;;;;;;4994443;28;20229;-91
2022/10/22 05:08:21;;;;;;;3.03;2.30;;;8.50;99.90;;;;;;5006718;28;20214;-91
2022/10/22 05:10:52;;;;;;;3.23;2.30;;;8.50;99.90;;;;;;5000422;28;20277;-92
2022/10/22 05:13:24;;;;;;;3.43;2.10;;;8.60;99.90;;;;;;4992691;28;20217;-92
2022/10/22 05:15:55;;;;;;;4.93;2.20;;;8.50;99.90;;;;;;4996902;28;20577;-89
2022/10/22 05:18:26;;;;;;;5.23;2.07;;;8.60;99.90;;;;;;5000599;28;20202;-91
2022/10/22 05:20:59;;;;;;;4.33;2.30;;;8.50;99.90;;;;;;5015768;28;20202;-93
2022/10/22 05:23:30;;;;;;;5.27;2.47;;;8.50;99.90;;;;;;5000068;28;20264;-91
2022/10/22 05:26:05;;;;;;;3.70;2.00;;;8.60;99.90;;;;;;5012822;28;20213;-91
2022/10/22 05:28:37;;;;;;;3.17;2.00;;;8.50;99.90;;;;;;5016400;28;20208;-91
2022/10/22 05:31:09;;;;;;;5.33;2.20;;;8.50;99.90;;;;;;5027316;28;20245;-91
2022/10/22 05:33:40;;;;;;;3.20;2.00;;;8.50;99.90;;;;;;5014024;28;20210;-92
2022/10/22 05:36:16;;;;;;;3.13;2.30;;;8.50;99.90;;;;;;5015443;28;20317;-91
2022/10/22 05:38:47;;;;;;;3.80;2.57;;;8.60;99.90;;;;;;4997358;28;20292;-91
2022/10/22 05:41:22;;;;;;;5.57;2.67;;;8.60;99.90;;;;;;5015187;28;20297;-92
2022/10/22 05:43:55;;;;;;;5.67;2.83;;;8.60;99.90;;;;;;5030424;28;20243;-91
2022/10/22 05:46:28;;;;;;;3.93;2.87;;;8.70;99.90;;;;;;5034225;28;20205;-91
2022/10/22 05:49:04;;;;;;;4.17;2.30;;;8.70;99.90;;;;;;5024368;28;20222;-93
2022/10/22 05:51:38;;;;;;;5.03;3.23;;;8.70;99.90;;;;;;5017144;28;20201;-91
2022/10/22 05:54:11;;;;;;;5.17;3.10;;;8.70;99.90;;;;;;5016139;28;20225;-89
2022/10/22 05:56:42;;;;;;;5.83;3.27;;;8.70;99.90;;;;;;5000150;28;20213;-92
2022/10/22 05:59:14;;;;;;;5.17;2.50;;;8.80;99.90;;;;;;5031655;28;20232;-92
2022/10/22 06:01:45;;;;;;;5.97;2.77;;;8.70;99.90;;;;;;5036665;28;20654;-91
2022/10/22 06:04:18;;;;;;;4.33;2.30;;;8.70;99.90;;;;;;5022666;28;20229;-92
2022/10/22 06:06:53;;;;;;;4.67;2.93;;;8.70;99.90;;;;;;5028246;28;20206;-92
2022/10/22 06:09:28;;;;;;;3.57;2.93;;;8.70;99.90;;;;;;5026414;28;20210;-93
2022/10/22 06:12:00;;;;;;;3.37;1.97;;;8.80;99.90;;;;;;5019185;28;20208;-94
2022/10/22 06:14:32;;;;;;;3.23;2.37;;;8.80;99.90;;;;;;5010994;28;20214;-93
2022/10/22 06:17:03;;;;;;;4.30;2.50;;;8.70;99.90;;;;;;5005841;28;20206;-93
2022/10/22 06:19:35;;;;;;;5.07;2.30;;;8.70;99.90;;;;;;4994112;28;20206;-92
2022/10/22 06:22:07;;;;;;;2.70;2.10;;;8.70;99.90;;;;;;5008557;28;20216;-93
2022/10/22 06:24:39;;;;;;;3.70;1.93;;;8.70;99.90;;;;;;5011216;28;20230;-93
2022/10/22 06:27:14;;;;;;;2.70;1.60;;;8.80;99.90;;;;;;5010464;28;20202;-93
2022/10/22 06:29:47;;;;;;;2.73;1.70;;;8.80;99.90;;;;;;5025072;28;20196;-93
2022/10/22 06:32:19;;;;;;;4.30;1.83;;;8.80;99.90;;;;;;5030437;28;20194;-93
2022/10/22 06:34:51;;;;;;;2.57;1.70;;;8.80;99.90;;;;;;5027868;28;20234;-93
2022/10/22 06:37:24;;;;;;;2.20;1.50;;;8.90;99.90;;;;;;5025420;28;20204;-92
2022/10/22 06:39:56;;;;;;;3.73;1.60;;;8.80;99.90;;;;;;5011044;28;20210;-93
2022/10/22 06:42:28;;;;;;;3.47;1.70;;;8.80;99.90;;;;;;5022100;28;20300;-93
2022/10/22 06:44:59;;;;;;;4.80;1.63;;;8.70;99.90;;;;;;5023734;28;20216;-93
2022/10/22 06:47:32;;;;;;;3.13;1.80;;;8.70;99.90;;;;;;5015517;28;20219;-92
2022/10/22 06:50:03;;;;;;;3.67;2.10;;;8.70;99.90;;;;;;5015085;28;20213;-91
2022/10/22 06:52:36;;;;;;;3.80;2.03;;;8.60;99.90;;;;;;5016821;28;20662;-93
2022/10/22 06:55:08;;;;;;;5.70;2.40;;;8.70;99.90;;;;;;5006555;28;20214;-91
2022/10/22 06:57:39;;;;;;;4.57;2.03;;;8.70;99.90;;;;;;5016522;28;20297;-92
2022/10/22 07:00:12;;;;;;;4.57;2.17;;;8.70;99.90;;;;;;5002898;28;20667;-92
2022/10/22 07:02:45;;;;;;;6.53;2.10;;;8.70;99.90;;;;;;5029499;28;20583;-91
2022/10/22 07:05:17;;;;;;;5.13;2.10;;;8.70;99.90;;;;;;5016916;28;20276;-93
2022/10/22 07:07:50;;;;;;;6.97;2.40;;;8.70;99.90;;;;;;5006973;28;20210;-93
2022/10/22 07:10:21;;;;;;;6.33;2.50;;;8.70;99.90;;;;;;5014133;28;20329;-92
2022/10/22 07:12:57;;;;;;;6.03;2.80;;;8.70;99.90;;;;;;5020937;28;20208;-93
2022/10/22 07:15:28;;;;;;;4.40;2.13;;;8.60;99.90;;;;;;5000081;28;20206;-92
2022/10/22 07:17:59;;;;;;;4.37;2.53;;;8.60;99.90;;;;;;5021363;28;20214;-92
2022/10/22 07:20:31;;;;;;;5.83;2.70;;;8.60;99.90;;;;;;5017137;28;20663;-92
2022/10/22 07:23:05;;;;;;;5.67;2.60;;;8.60;99.90;;;;;;5016734;28;20340;-93
2022/10/22 07:25:36;;;;;;;5.37;3.40;;;8.60;99.90;;;;;;5015350;28;20213;-93
2022/10/22 07:28:07;;;;;;;5.83;2.80;;;8.50;99.90;;;;;;5015267;28;21244;-93
2022/10/22 07:30:39;;;;;;;6.60;2.63;;;8.40;99.90;;;;;;5015379;28;20570;-92
2022/10/22 07:33:11;;;;;;;4.87;2.23;;;8.40;99.90;;;;;;5016626;28;20219;-93
2022/10/22 07:35:43;;;;;;;4.57;2.10;;;8.40;99.90;;;;;;5031922;28;20215;-92
2022/10/22 07:38:17;;;;;;;3.03;2.37;;;8.40;99.90;;;;;;4999751;28;20202;-92
2022/10/22 07:40:48;;;;;;;6.20;2.50;;;8.50;99.90;;;;;;5016884;28;20205;-93
2022/10/22 07:43:20;;;;;;;6.97;2.20;;;8.50;99.90;;;;;;5015117;28;20705;-92
2022/10/22 07:45:51;;;;;;;5.13;2.07;;;8.50;99.90;;;;;;5008721;28;20234;-93
2022/10/22 07:48:23;;;;;;;6.17;2.43;;;8.50;99.90;;;;;;5014683;28;20312;-92
2022/10/22 07:50:54;;;;;;;3.47;1.90;;;8.40;99.90;;;;;;5013338;28;20206;-91
2022/10/22 07:53:27;;;;;;;3.67;1.90;;;8.50;99.90;;;;;;5014459;28;20217;-92
2022/10/22 07:55:59;;;;;;;3.40;2.10;;;8.50;99.90;;;;;;5021255;28;20214;-92
2022/10/22 07:58:30;;;;;;;3.20;1.93;;;8.50;99.90;;;;;;5019529;28;20211;-94
2022/10/22 08:01:04;;;;;;;5.80;2.07;;;8.50;99.90;;;;;;4998209;28;20357;-93
2022/10/22 08:03:35;;;;;;;5.07;2.10;;;8.50;99.90;;;;;;5013813;28;20244;-93
2022/10/22 08:06:07;;;;;;;4.23;1.90;;;8.50;99.90;;;;;;4993805;28;20213;-92
2022/10/22 08:08:40;;;;;;;3.30;1.73;;;8.60;99.90;;;;;;4999115;28;20209;-93
2022/10/22 08:11:12;;;;;;;2.80;1.93;;;8.60;99.90;;;;;;4996612;28;20210;-92
2022/10/22 08:13:43;;;;;;;3.00;1.53;;;8.60;99.90;;;;;;5003549;28;20206;-93
2022/10/22 08:16:15;;;;;;;8.23;2.20;;;8.60;99.90;;;;;;5014511;28;20276;-92
2022/10/22 08:18:46;;;;;;;5.63;1.80;;;8.50;99.90;;;;;;5018140;28;20201;-93
2022/10/22 08:21:18;;;;;;;3.87;1.50;;;8.50;99.90;;;;;;4996498;28;20241;-92
2022/10/22 08:23:52;;;;;;;3.80;1.60;;;8.40;99.90;;;;;;4997388;28;20383;-92
2022/10/22 08:26:24;;;;;;;2.27;1.50;;;8.30;99.90;;;;;;4997648;28;20214;-93
2022/10/22 08:28:55;;;;;;;4.20;1.60;;;8.20;99.90;;;;;;5007033;28;20214;-92
2022/10/22 08:31:27;;;;;;;4.30;1.70;;;8.20;99.90;;;;;;5010859;28;20236;-92
2022/10/22 08:33:58;;;;;;;3.57;1.37;;;8.20;99.90;;;;;;4999204;28;20566;-92
2022/10/22 08:36:30;;;;;;;4.57;1.57;;;8.20;99.90;;;;;;5016729;28;20576;-93
2022/10/22 08:39:03;;;;;;;4.03;1.37;;;8.20;99.90;;;;;;5014660;28;20210;-92
2022/10/22 08:41:44;;;;;;;2.13;1.20;;;8.20;99.90;;;;;;5014745;28;20736;-92
2022/10/22 08:44:39;;;;;;;2.10;1.17;;;8.30;99.90;;;;;;5006432;28;20264;-91
2022/10/22 08:47:29;;;;;;;4.40;1.17;;;8.30;99.90;;;;;;5011501;28;20650;-93
2022/10/22 08:50:02;;;;;;;2.50;1.10;;;8.30;99.90;;;;;;5009816;28;20205;-93
2022/10/22 08:52:35;;;;;;;5.40;1.47;;;8.30;99.90;;;;;;5013305;28;20232;-93
2022/10/22 08:55:17;;;;;;;6.03;1.33;;;8.30;99.90;;;;;;5014529;28;20318;-93
2022/10/22 08:57:56;;;;;;;2.17;1.00;;;8.20;99.90;;;;;;5011148;28;20226;-94
2022/10/22 09:00:36;;;;;;;2.57;1.20;;;8.20;99.90;;;;;;4999201;28;20206;-93
2022/10/22 09:03:27;;;;;;;1.70;1.00;;;8.20;99.90;;;;;;5006657;28;20194;-91
2022/10/22 09:06:04;;;;;;;2.17;1.10;;;8.20;99.90;;;;;;4996097;28;20285;-92
2022/10/22 09:08:37;;;;;;;1.80;1.10;;;8.20;99.90;;;;;;4982170;28;20234;-93
2022/10/22 09:11:21;;;;;;;2.93;1.30;;;8.20;99.90;;;;;;5004432;28;20232;-93
2022/10/22 09:13:54;;;;;;;5.83;1.33;;;8.20;99.90;;;;;;4996593;28;20222;-93
2022/10/22 09:16:37;;;;;;;2.90;1.30;;;8.20;99.90;;;;;;4994739;28;20985;-92
2022/10/22 09:19:22;;;;;;;4.23;1.50;;;8.10;99.90;;;;;;4994793;28;20264;-92
2022/10/22 09:22:01;;;;;;;3.00;1.70;;;8.20;99.90;;;;;;5001588;28;20218;-93
2022/10/22 09:24:38;;;;;;;2.03;1.33;;;8.10;99.90;;;;;;4998134;28;20229;-93
2022/10/22 09:27:17;;;;;;;1.87;1.30;;;8.10;99.90;;;;;;4998605;28;20616;-92
2022/10/22 09:29:50;;;;;;;1.37;1.10;;;8.10;99.90;;;;;;5008203;28;20206;-92
2022/10/22 09:32:22;;;;;;;1.67;1.20;;;8.10;99.90;;;;;;5016743;28;20351;-93
2022/10/22 09:34:58;;;;;;;2.23;1.00;;;8.00;99.90;;;;;;5017685;28;20232;-93
2022/10/22 09:37:31;;;;;;;2.97;1.20;;;8.00;99.90;;;;;;5018356;28;20611;-93
2022/10/22 09:40:08;;;;;;;2.23;1.30;;;8.00;99.90;;;;;;5017738;28;20272;-92
2022/10/22 09:42:42;;;;;;;1.80;1.50;;;8.00;99.90;;;;;;5017093;28;20284;-92
2022/10/22 09:45:20;;;;;;;3.43;1.40;;;8.00;99.90;;;;;;5017245;28;20641;-91
2022/10/22 09:47:51;;;;;;;3.87;1.37;;;7.90;99.90;;;;;;5016771;28;20205;-93
2022/10/22 09:50:42;;;;;;;2.23;1.50;;;8.00;99.90;;;;;;5001338;28;20217;-93
2022/10/22 09:53:18;;;;;;;1.83;1.13;;;8.00;99.90;;;;;;5018650;28;20217;-93
2022/10/22 09:55:54;;;;;;;2.20;1.20;;;8.00;99.90;;;;;;5017484;28;20221;-93
2022/10/22 09:58:29;;;;;;;1.60;1.30;;;8.00;99.90;;;;;;5021229;28;20263;-91
2022/10/22 10:01:02;;;;;;;1.63;1.17;;;8.00;99.90;;;;;;5019300;28;20605;-92
2022/10/22 10:03:35;;;;;;;2.07;1.50;;;8.10;99.90;;;;;;5021491;28;20251;-93
2022/10/22 10:06:06;;;;;;;1.50;1.30;;;8.20;99.90;;;;;;5019018;28;20705;-93
2022/10/22 10:08:38;;;;;;;4.63;1.70;;;8.20;99.90;;;;;;5017070;28;20565;-93
2022/10/22 10:11:17;;;;;;;2.97;1.60;;;8.10;99.90;;;;;;5021104;28;20222;-93
2022/10/22 10:13:59;;;;;;;2.23;1.23;;;8.10;99.90;;;;;;5001992;28;20745;-93
2022/10/22 10:16:44;;;;;;;2.90;1.57;;;8.10;99.90;;;;;;5025068;28;20217;-92
2022/10/22 10:19:33;;;;;;;1.77;1.30;;;8.10;99.90;;;;;;5023202;28;20267;-92
2022/10/22 10:22:18;;;;;;;5.00;1.50;;;8.10;99.90;;;;;;5017881;28;20237;-92
2022/10/22 10:25:11;;;;;;;2.47;1.47;;;8.20;99.90;;;;;;5016671;28;20234;-90
2022/10/22 10:27:49;;;;;;;3.23;1.50;;;8.20;99.90;;;;;;5018722;28;20209;-93
2022/10/22 10:30:24;;;;;;;2.23;1.10;;;8.20;99.90;;;;;;5016854;28;20206;-93
2022/10/22 10:33:20;;;;;;;2.93;1.10;;;8.20;99.90;;;;;;5017865;28;20197;-93
2022/10/22 10:35:58;;;;;;;2.13;0.90;;;8.30;99.90;;;;;;5016656;28;20225;-92
2022/10/22 10:38:49;;;;;;;2.37;1.10;;;8.30;99.90;;;;;;5016519;28;20209;-92
2022/10/22 10:41:28;;;;;;;2.00;1.00;;;8.30;99.90;;;;;;5016145;28;20214;-93
2022/10/22 10:44:12;;;;;;;1.17;0.70;;;8.30;99.90;;;;;;5015588;28;20202;-93
2022/10/22 10:46:55;;;;;;;2.13;1.00;;;8.30;99.90;;;;;;5016187;28;20300;-92
2022/10/22 10:49:30;;;;;;;2.63;1.60;;;8.30;99.90;;;;;;5014970;28;20209;-93
2022/10/22 10:52:11;;;;;;;1.30;1.03;;;8.30;99.90;;;;;;4998660;28;20228;-92
2022/10/22 10:54:59;;;;;;;2.30;1.10;;;8.30;99.90;;;;;;5016225;28;20221;-92
2022/10/22 10:57:41;;;;;;;2.93;0.97;;;8.30;99.90;;;;;;5016017;28;20273;-92
2022/10/22 11:00:16;;;;;;;2.57;0.80;;;8.30;99.90;;;;;;5016136;28;20220;-92
2022/10/22 11:03:41;;;;;;;1.17;0.80;;;8.20;99.90;;;;;;5015380;28;20217;-92
2022/10/22 11:06:15;;;;;;;3.67;1.00;;;8.20;99.90;;;;;;5015833;28;20702;-92
2022/10/22 11:08:58;;;;;;;2.30;0.80;;;8.20;99.90;;;;;;5015822;28;20212;-92
2022/10/22 11:11:37;;;;;;;1.17;0.90;;;8.10;99.90;;;;;;5015037;28;20244;-92
2022/10/22 11:14:19;;;;;;;1.87;0.90;;;8.10;99.90;;;;;;5014981;28;20201;-93
2022/10/22 11:17:00;;;;;;;0.80;0.80;;;8.10;99.90;;;;;;5015771;28;20217;-93
2022/10/22 11:19:39;;;;;;;4.30;1.00;;;8.10;99.90;;;;;;4998473;28;20209;-93
2022/10/22 11:22:35;;;;;;;1.47;0.87;;;8.10;99.90;;;;;;5000286;28;20209;-92
2022/10/22 11:25:18;;;;;;;0.90;0.80;;;8.10;99.90;;;;;;4997949;28;20792;-92
2022/10/22 11:27:54;;;;;;;1.53;0.90;;;8.20;99.90;;;;;;5014631;28;20209;-92
2022/10/22 11:30:37;;;;;;;1.50;0.90;;;8.20;99.90;;;;;;5018248;28;20253;-93
2022/10/22 11:33:12;;;;;;;2.70;0.83;;;8.20;99.90;;;;;;5016279;28;20201;-93
2022/10/22 11:35:47;;;;;;;2.10;0.90;;;8.30;99.90;;;;;;5018093;28;20212;-93
2022/10/22 11:38:25;;;;;;;2.47;0.77;;;8.30;99.90;;;;;;5019719;28;20201;-92
2022/10/22 11:41:03;;;;;;;1.10;0.87;;;8.30;99.90;;;;;;5019717;28;20277;-93
2022/10/22 11:43:36;;;;;;;2.40;1.00;;;8.30;99.90;;;;;;5018295;28;20205;-92
2022/10/22 11:46:27;;;;;;;1.93;0.80;;;8.40;99.90;;;;;;4994974;28;20595;-93
2022/10/22 11:49:17;;;;;;;1.20;1.10;;;8.30;99.90;;;;;;4997610;28;20210;-93
2022/10/22 11:51:51;;;;;;;1.87;1.00;;;8.40;99.90;;;;;;4994404;28;20317;-96
2022/10/22 11:54:41;;;;;;;3.00;1.20;;;8.40;99.90;;;;;;4995102;28;20218;-93
2022/10/22 11:57:23;;;;;;;5.67;2.03;;;8.50;99.90;;;;;;4996347;28;20220;-93
2022/10/22 11:59:57;;;;;;;3.37;1.50;;;8.50;99.90;;;;;;5015313;28;20224;-92
2022/10/22 12:03:02;;;;;;;5.03;2.10;;;8.40;99.90;;;;;;5015205;28;20228;-93
2022/10/22 12:05:37;;;;;;;7.07;2.20;;;8.50;99.90;;;;;;4998610;28;20350;-92
2022/10/22 12:08:25;;;;;;;10.93;2.03;;;8.50;99.90;;;;;;5015372;28;20209;-92
2022/10/22 12:11:07;;;;;;;7.03;2.20;;;8.40;99.90;;;;;;5015852;28;20209;-93
2022/10/22 12:14:02;;;;;;;7.77;2.40;;;8.40;99.90;;;;;;4998210;28;20666;-92
2022/10/22 12:16:41;;;;;;;17.57;2.70;;;8.40;99.90;;;;;;5017732;28;20211;-91
2022/10/22 12:19:31;;;;;;;4.10;2.43;;;8.50;99.90;;;;;;5034732;28;20209;-91
2022/10/22 12:22:18;;;;;;;7.77;2.50;;;8.50;99.90;;;;;;5033987;28;20221;-92
2022/10/22 12:24:56;;;;;;;9.17;3.00;;;8.60;99.90;;;;;;5033820;28;20192;-92
2022/10/22 12:27:35;;;;;;;8.37;2.70;;;8.50;99.90;;;;;;5016520;28;20241;-92
2022/10/22 12:30:20;;;;;;;3.93;3.00;;;8.40;99.90;;;;;;4999246;28;20206;-92
2022/10/22 12:32:54;;;;;;;15.63;3.93;;;8.40;99.90;;;;;;4997357;28;20209;-92
2022/10/22 12:35:27;;;;;;;15.53;3.43;;;8.40;99.90;;;;;;4996501;28;20574;-92
2022/10/22 12:38:01;;;;;;;10.83;3.43;;;8.40;99.90;;;;;;5021429;28;20242;-91
2022/10/22 12:40:36;;;;;;;6.63;3.57;;;8.40;99.90;;;;;;5016986;28;20205;-93
2022/10/22 12:43:12;;;;;;;5.83;3.30;;;8.40;99.90;;;;;;5014588;28;20209;-91
2022/10/22 12:45:47;;;;;;;4.60;3.43;;;8.40;99.90;;;;;;5013724;28;20576;-93
2022/10/22 12:48:23;;;;;;;5.83;3.57;;;8.40;99.90;;;;;;5014633;28;20208;-92
2022/10/22 12:50:56;;;;;;;5.57;3.83;;;8.40;99.90;;;;;;5014822;28;20209;-92
2022/10/22 12:53:30;;;;;;;5.60;3.80;;;8.50;99.90;;;;;;5013718;28;20220;-93
2022/10/22 12:56:06;;;;;;;5.27;2.30;;;8.60;99.90;;;;;;5016321;28;20622;-91
2022/10/22 12:58:41;;;;;;;3.37;2.17;;;8.60;99.90;;;;;;5018993;28;20213;-91
2022/10/22 13:01:14;;;;;;;3.93;2.10;;;8.50;99.90;;;;;;5018478;28;20208;-92
2022/10/22 13:03:48;;;;;;;4.37;1.90;;;8.40;99.90;;;;;;5018210;28;20217;-93
2022/10/22 13:06:27;;;;;;;4.93;2.10;;;8.40;99.90;;;;;;5018308;28;20228;-92
2022/10/22 13:09:07;;;;;;;2.20;1.73;;;8.40;99.90;;;;;;5021382;28;20209;-91
2022/10/22 13:11:44;;;;;;;2.70;2.10;;;8.50;99.90;;;;;;5003927;28;20264;-91
2022/10/22 13:14:27;;;;;;;4.83;2.40;;;8.40;99.90;;;;;;5001316;28;20221;-91
2022/10/22 13:17:11;;;;;;;5.60;2.33;;;8.40;99.90;;;;;;5000498;28;20281;-90
2022/10/22 13:19:45;;;;;;;9.40;2.63;;;8.30;99.90;;;;;;5001757;28;20210;-92
2022/10/22 13:22:36;;;;;;;17.03;3.43;;;8.40;99.90;;;;;;5001422;28;20212;-91
2022/10/22 13:25:24;;;;;;;5.30;2.97;;;8.40;99.90;;;;;;4981981;28;20647;-93
2022/10/22 13:27:58;;;;;;;6.87;2.73;;;8.40;99.90;;;;;;4990564;28;20701;-92
2022/10/22 13:30:32;;;;;;;5.23;3.03;;;8.30;99.90;;;;;;5018191;28;20677;-93
2022/10/22 13:33:05;;;;;;;6.03;3.30;;;8.30;99.90;;;;;;5016947;28;20206;-91
2022/10/22 13:35:39;;;;;;;6.17;3.10;;;8.40;99.90;;;;;;5018436;28;20297;-92
2022/10/22 13:38:16;;;;;;;6.30;3.10;;;8.40;99.90;;;;;;5017964;28;20224;-92
2022/10/22 13:40:47;;;;;;;9.27;3.20;;;8.50;99.90;;;;;;5018457;28;20301;-93